Hengoed, United Kingdom
Current Conditions -  °F | °C
As of 12:50 PM on Thursday 27 Nov 2014 (Local Time) from EGFF Reporting Station
Haze Haze  
Wind Chill:   Ceiling: 2700
Heat Index:   Visibility: 2.8mi
Dew Point:   Wind: 6mph
Humidity: 100%   Direction: 90°E
Pressure: 29.56"   Gusts: NA
Location:  51.64°N, 3.24°W
Report Text: EGFF 271250Z 09005KT 4500 BR SCT001 BKN027 OVC043 07/07 Q1001
Loading
Personal Weather Stations






























Interactive Weather Map New forecast layout! Learn more

10-Day Weather Forecast

Advertisements
Track Severe Weather on mobile